Time;durP1;ratioP1;P1;durP2;ratioP2;P2;SDS_P1;SDS_P2;PMS_P1;PMS_P2;Temp;Humidity;BMP_temperature;BMP_pressure;BME280_temperature;BME280_humidity;BME280_pressure;Samples;Min_cycle;Max_cycle;Signal;HPM_P1;HPM_P2
2022/06/21 00:00:19;;;;;;;;;;;;;;;21.89;79.16;96528.91;598048;237;64983;-68
2022/06/21 00:02:47;;;;;;;;;;;;;;;21.89;79.11;96528.91;598112;237;65733;-68
2022/06/21 00:05:16;;;;;;;;;;;;;;;21.90;79.03;96524.34;598134;237;62822;-68
2022/06/21 00:07:44;;;;;;;;;;;;;;;21.89;79.06;96518.20;598132;237;66871;-68
2022/06/21 00:10:13;;;;;;;;;;;;;;;21.89;79.27;96518.20;598147;237;66689;-68
2022/06/21 00:12:40;;;;;;;;;;;;;;;21.90;79.22;96525.13;598131;237;65054;-68
2022/06/21 00:15:08;;;;;;;;;;;;;;;21.89;79.16;96520.09;598183;237;67213;-68
2022/06/21 00:17:35;;;;;;;;;;;;;;;21.89;79.25;96522.77;598054;235;67245;-68
2022/06/21 00:20:03;;;;;;;;;;;;;;;21.89;79.09;96528.11;598095;237;64900;-68
2022/06/21 00:22:30;;;;;;;;;;;;;;;21.89;79.08;96536.14;598103;237;67040;-68
2022/06/21 00:24:58;;;;;;;;;;;;;;;21.89;79.09;96528.11;598141;237;66897;-74
2022/06/21 00:27:25;;;;;;;;;;;;;;;21.88;79.00;96521.97;598177;237;64872;-74
2022/06/21 00:29:53;;;;;;;;;;;;;;;21.89;79.15;96526.23;598093;237;66827;-74
2022/06/21 00:32:21;;;;;;;;;;;;;;;21.89;79.12;96520.88;598152;237;64400;-74
2022/06/21 00:34:48;;;;;;;;;;;;;;;21.88;79.03;96521.97;598136;237;64855;-74
2022/06/21 00:37:17;;;;;;;;;;;;;;;21.89;78.93;96523.55;598139;237;66591;-74
2022/06/21 00:39:45;;;;;;;;;;;;;;;21.89;79.07;96523.55;598187;237;66619;-74
2022/06/21 00:42:29;;;;;;;;;;;;;;;21.89;79.15;96526.23;598120;237;64881;-74
2022/06/21 00:45:01;;;;;;;;;;;;;;;21.89;79.20;96520.88;598123;237;65077;-76
2022/06/21 00:47:30;;;;;;;;;;;;;;;21.89;79.23;96518.20;598137;235;65602;-75
2022/06/21 00:50:05;;;;;;;;;;;;;;;21.90;79.17;96516.31;598046;237;63666;-75
2022/06/21 00:52:40;;;;;;;;;;;;;;;21.89;79.17;96514.73;597968;237;66756;-76
2022/06/21 00:55:09;;;;;;;;;;;;;;;21.89;79.18;96510.17;598189;237;64570;-76
2022/06/21 00:57:38;;;;;;;;;;;;;;;21.89;79.24;96518.20;598040;237;65222;-76
2022/06/21 01:00:24;;;;;;;;;;;;;;;21.89;79.23;96518.20;597975;237;64620;-76
2022/06/21 01:02:51;;;;;;;;;;;;;;;21.89;79.28;96512.85;598134;237;65837;-74
2022/06/21 01:05:19;;;;;;;;;;;;;;;21.89;79.30;96501.36;598129;237;62796;-74
2022/06/21 01:07:46;;;;;;;;;;;;;;;21.89;79.35;96499.47;598088;237;65726;-74
2022/06/21 01:10:15;;;;;;;;;;;;;;;21.88;79.47;96489.88;598126;237;66706;-74
2022/06/21 01:12:44;;;;;;;;;;;;;;;21.88;79.54;96495.22;598113;237;62750;-74
2022/06/21 01:15:17;;;;;;;;;;;;;;;21.89;79.50;96490.66;598069;233;67006;-74
2022/06/21 01:17:47;;;;;;;;;;;;;;;21.89;79.46;96487.98;598413;235;64974;-74
2022/06/21 01:20:16;;;;;;;;;;;;;;;21.88;79.49;96479.17;601167;236;63042;-74
2022/06/21 01:23:00;;;;;;;;;;;;;;;21.90;79.62;96481.54;600912;233;67072;-73
2022/06/21 01:25:41;;;;;;;;;;;;;;;21.89;79.61;96485.31;601275;236;64430;-74
2022/06/21 01:28:09;;;;;;;;;;;;;;;21.89;79.69;96479.96;601227;236;64898;-75
2022/06/21 01:30:37;;;;;;;;;;;;;;;21.88;79.83;96484.52;601185;236;67056;-75
2022/06/21 01:33:05;;;;;;;;;;;;;;;21.89;79.81;96483.42;601150;236;67184;-75
2022/06/21 01:35:43;;;;;;;;;;;;;;;21.88;79.94;96489.88;601176;236;63071;-76
2022/06/21 01:38:12;;;;;;;;;;;;;;;21.88;79.99;96484.52;601204;236;67138;-75
2022/06/21 01:40:44;;;;;;;;;;;;;;;21.88;80.05;96484.52;601097;236;66934;-75
2022/06/21 01:43:13;;;;;;;;;;;;;;;21.88;80.01;96479.17;601194;236;64880;-75
2022/06/21 01:45:43;;;;;;;;;;;;;;;21.88;80.06;96483.70;601174;236;67124;-75
2022/06/21 01:48:12;;;;;;;;;;;;;;;21.87;80.05;96482.91;601096;236;66897;-75
2022/06/21 01:50:40;;;;;;;;;;;;;;;21.88;80.02;96489.05;601212;236;64968;-75
2022/06/21 01:53:09;;;;;;;;;;;;;;;21.88;80.04;96486.38;601205;236;64652;-75
2022/06/21 01:55:38;;;;;;;;;;;;;;;21.88;80.02;96487.20;601214;236;64942;-75
2022/06/21 01:58:07;;;;;;;;;;;;;;;21.87;80.16;96485.59;601063;236;63648;-75
2022/06/21 02:00:36;;;;;;;;;;;;;;;21.88;80.18;96483.70;601172;236;67386;-75
2022/06/21 02:03:05;;;;;;;;;;;;;;;21.89;80.30;96487.98;601167;236;67077;-75
2022/06/21 02:05:34;;;;;;;;;;;;;;;21.88;80.40;96492.55;601123;236;62760;-75
2022/06/21 02:08:03;;;;;;;;;;;;;;;21.87;80.45;96488.27;601237;236;67236;-75
2022/06/21 02:10:35;;;;;;;;;;;;;;;21.88;80.53;96481.02;601046;236;64675;-75
2022/06/21 02:13:04;;;;;;;;;;;;;;;21.87;80.62;96482.91;601055;236;64971;-69
2022/06/21 02:15:33;;;;;;;;;;;;;;;21.87;80.50;96482.91;600752;236;64887;-69
2022/06/21 02:18:02;;;;;;;;;;;;;;;21.88;80.61;96487.20;601042;235;64627;-69
2022/06/21 02:20:35;;;;;;;;;;;;;;;21.88;80.67;96481.02;601236;236;65144;-69
2022/06/21 02:23:03;;;;;;;;;;;;;;;21.87;80.72;96480.23;601196;236;67514;-69
2022/06/21 02:25:31;;;;;;;;;;;;;;;21.88;80.78;96487.20;601199;236;66874;-69
2022/06/21 02:28:00;;;;;;;;;;;;;;;21.88;80.79;96489.88;601196;236;64968;-76
2022/06/21 02:30:29;;;;;;;;;;;;;;;21.88;80.76;96481.84;600952;236;67038;-75
2022/06/21 02:32:58;;;;;;;;;;;;;;;21.87;80.83;96477.56;601179;236;67083;-75
2022/06/21 02:35:33;;;;;;;;;;;;;;;21.88;80.91;96481.84;601232;236;65212;-75
2022/06/21 02:38:02;;;;;;;;;;;;;;;21.87;81.01;96485.59;601058;236;67141;-75
2022/06/21 02:40:32;;;;;;;;;;;;;;;21.87;80.92;96485.59;601210;236;66868;-74
2022/06/21 02:43:01;;;;;;;;;;;;;;;21.87;80.93;96482.91;600921;236;63657;-74
2022/06/21 02:45:36;;;;;;;;;;;;;;;21.87;80.87;96484.80;601166;236;67259;-74
2022/06/21 02:48:05;;;;;;;;;;;;;;;21.86;80.96;96481.33;600939;236;67410;-75
2022/06/21 02:50:37;;;;;;;;;;;;;;;21.87;80.88;96480.23;601150;236;65443;-75
2022/06/21 02:53:06;;;;;;;;;;;;;;;21.88;80.88;96484.52;601091;236;67045;-76
2022/06/21 02:55:41;;;;;;;;;;;;;;;21.86;80.97;96484.01;601169;236;67154;-75
2022/06/21 02:58:16;;;;;;;;;;;;;;;21.86;80.93;96475.98;601085;236;65193;-75
2022/06/21 03:00:44;;;;;;;;;;;;;;;21.86;81.19;96475.98;600972;233;65820;-74
2022/06/21 03:03:13;;;;;;;;;;;;;;;21.87;81.16;96471.42;601189;236;64922;-74
2022/06/21 03:05:40;;;;;;;;;;;;;;;21.87;81.18;96474.09;601191;236;62838;-74
2022/06/21 03:08:09;;;;;;;;;;;;;;;21.86;81.21;96475.98;601162;236;64227;-74
2022/06/21 03:10:38;;;;;;;;;;;;;;;21.87;81.14;96480.23;601188;236;66973;-74
2022/06/21 03:13:13;;;;;;;;;;;;;;;21.86;81.16;96478.66;601139;236;64973;-74
2022/06/21 03:15:41;;;;;;;;;;;;;;;21.86;81.19;96469.84;601149;236;67156;-74
2022/06/21 03:18:10;;;;;;;;;;;;;;;21.86;81.25;96467.95;601192;235;64814;-74
2022/06/21 03:20:38;;;;;;;;;;;;;;;21.86;81.27;96459.14;601179;236;62753;-74
2022/06/21 03:23:06;;;;;;;;;;;;;;;21.86;81.34;96462.61;601172;236;65876;-74
2022/06/21 03:25:41;;;;;;;;;;;;;;;21.85;81.27;96455.68;601141;236;67146;-74
2022/06/21 03:28:20;;;;;;;;;;;;;;;21.87;81.18;96455.38;601186;236;62743;-74
2022/06/21 03:30:48;;;;;;;;;;;;;;;21.86;81.12;96459.93;600941;236;67247;-74
2022/06/21 03:33:16;;;;;;;;;;;;;;;21.86;81.16;96454.58;601206;236;67344;-74
2022/06/21 03:35:43;;;;;;;;;;;;;;;21.86;81.11;96448.44;601184;236;64893;-74
2022/06/21 03:38:11;;;;;;;;;;;;;;;21.85;81.18;96453.00;601112;236;67042;-74
2022/06/21 03:43:39;;;;;;;;;;;;;;;21.86;81.21;96445.77;601179;236;65181;-76
2022/06/21 03:46:08;;;;;;;;;;;;;;;21.85;81.27;96450.33;601057;236;67235;-69
2022/06/21 03:48:40;;;;;;;;;;;;;;;21.85;81.18;96447.66;601118;236;66951;-69
2022/06/21 03:51:08;;;;;;;;;;;;;;;21.87;81.30;96447.34;601177;236;64897;-69
2022/06/21 03:53:40;;;;;;;;;;;;;;;21.86;81.35;96438.53;601157;236;67258;-68
2022/06/21 03:56:18;;;;;;;;;;;;;;;21.85;81.54;96442.30;601173;236;66908;-69
2022/06/21 03:59:07;;;;;;;;;;;;;;;21.86;81.48;96443.09;601080;236;62717;-68
2022/06/21 04:01:36;;;;;;;;;;;;;;;21.85;81.44;96439.63;601170;236;67132;-70
2022/06/21 04:04:10;;;;;;;;;;;;;;;21.84;81.32;96438.02;601078;233;67195;-67
2022/06/21 04:06:40;;;;;;;;;;;;;;;21.85;81.33;96436.13;601130;236;64948;-68
2022/06/21 04:09:12;;;;;;;;;;;;;;;21.85;81.29;96439.63;600347;236;67092;-69
2022/06/21 04:11:56;;;;;;;;;;;;;;;21.85;81.30;96442.30;601031;233;66995;-69
2022/06/21 04:14:34;;;;;;;;;;;;;;;21.85;81.27;96444.98;601134;236;65184;-68
2022/06/21 04:17:03;;;;;;;;;;;;;;;21.85;81.27;96444.16;600746;236;67088;-68
2022/06/21 04:19:35;;;;;;;;;;;;;;;21.85;81.37;96444.98;598550;235;67744;-68
2022/06/21 04:22:04;;;;;;;;;;;;;;;21.84;81.39;96440.70;598103;237;65151;-68
2022/06/21 04:24:39;;;;;;;;;;;;;;;21.85;81.41;96441.48;598018;237;64379;-68
2022/06/21 04:27:11;;;;;;;;;;;;;;;21.85;81.40;96433.46;598068;237;66951;-69
2022/06/21 04:29:56;;;;;;;;;;;;;;;21.84;81.36;96430.00;598042;237;62787;-69
2022/06/21 04:32:31;;;;;;;;;;;;;;;21.85;81.47;96436.13;598067;237;67302;-68
2022/06/21 04:35:02;;;;;;;;;;;;;;;21.86;81.47;96437.74;598025;237;66974;-69
2022/06/21 04:37:31;;;;;;;;;;;;;;;21.84;81.48;96435.34;598099;235;64910;-69
2022/06/21 04:40:03;;;;;;;;;;;;;;;21.84;81.56;96434.55;598050;235;67179;-69
2022/06/21 04:42:35;;;;;;;;;;;;;;;21.84;81.52;96435.34;598092;237;66953;-69
2022/06/21 04:45:07;;;;;;;;;;;;;;;21.84;81.61;96430.00;598128;237;62749;-68
2022/06/21 04:47:42;;;;;;;;;;;;;;;21.84;81.41;96418.51;598146;237;66789;-68
2022/06/21 04:50:14;;;;;;;;;;;;;;;21.85;81.73;96420.09;598158;237;66672;-69
2022/06/21 04:52:43;;;;;;;;;;;;;;;21.84;81.74;96421.97;598133;237;64890;-69
2022/06/21 04:55:12;;;;;;;;;;;;;;;21.84;81.67;96426.53;598048;237;66995;-69
2022/06/21 04:57:40;;;;;;;;;;;;;;;21.84;81.61;96430.00;598037;237;66750;-67
2022/06/21 05:00:09;;;;;;;;;;;;;;;21.84;81.43;96432.67;598142;237;65087;-67
2022/06/21 05:02:39;;;;;;;;;;;;;;;21.85;81.57;96420.91;598035;237;66787;-67
2022/06/21 05:05:07;;;;;;;;;;;;;;;21.84;81.69;96430.00;598141;237;65700;-67
2022/06/21 05:07:36;;;;;;;;;;;;;;;21.84;81.52;96438.02;598123;235;64872;-68
2022/06/21 05:10:04;;;;;;;;;;;;;;;21.85;81.56;96430.78;598122;237;66743;-67
2022/06/21 05:12:33;;;;;;;;;;;;;;;21.85;81.71;96428.11;598064;237;66691;-68
2022/06/21 05:15:14;;;;;;;;;;;;;;;21.84;81.86;96421.97;598024;237;64950;-68
2022/06/21 05:17:42;;;;;;;;;;;;;;;21.84;81.91;96429.20;598008;235;67162;-68
2022/06/21 05:20:18;;;;;;;;;;;;;;;21.84;81.88;96415.83;601190;236;67245;-68
2022/06/21 05:22:47;;;;;;;;;;;;;;;21.84;81.75;96418.51;601240;236;62782;-68
2022/06/21 05:25:25;;;;;;;;;;;;;;;21.83;81.85;96417.72;601138;236;64793;-68
2022/06/21 05:27:53;;;;;;;;;;;;;;;21.83;81.83;96415.05;601139;236;64822;-68
2022/06/21 05:30:29;;;;;;;;;;;;;;;21.84;81.87;96413.16;601065;236;64898;-68
2022/06/21 05:32:57;;;;;;;;;;;;;;;21.83;82.00;96415.05;601224;236;67143;-68
2022/06/21 05:35:26;;;;;;;;;;;;;;;21.84;81.95;96413.95;601246;236;64853;-68
2022/06/21 05:37:58;;;;;;;;;;;;;;;21.83;82.07;96417.72;601178;236;65108;-68
2022/06/21 05:40:42;;;;;;;;;;;;;;;21.83;81.84;96408.91;601132;236;64525;-68
2022/06/21 05:43:17;;;;;;;;;;;;;;;21.83;82.03;96416.93;601160;236;66959;-69
2022/06/21 05:45:46;;;;;;;;;;;;;;;21.83;82.15;96417.72;601105;236;64859;-69
2022/06/21 05:48:15;;;;;;;;;;;;;;;21.83;82.07;96411.58;601059;236;65073;-67
2022/06/21 05:50:43;;;;;;;;;;;;;;;21.82;82.32;96410.76;601081;236;64927;-68
2022/06/21 05:53:15;;;;;;;;;;;;;;;21.83;82.25;96408.91;601146;236;64781;-68
2022/06/21 05:55:44;;;;;;;;;;;;;;;21.82;82.21;96413.44;600273;236;64693;-68
2022/06/21 05:58:13;;;;;;;;;;;;;;;21.83;82.13;96400.88;601168;236;66943;-68
2022/06/21 06:00:57;;;;;;;;;;;;;;;21.82;82.17;96400.06;600876;236;65940;-68
2022/06/21 06:03:32;;;;;;;;;;;;;;;21.83;82.18;96398.20;600999;236;64903;-67
2022/06/21 06:06:06;;;;;;;;;;;;;;;21.83;82.09;96412.37;600931;236;66761;-67
2022/06/21 06:08:32;;;;;;;;;;;;;;;21.83;81.35;96412.37;600921;236;62810;-69
2022/06/21 06:11:01;;;;;;;;;;;;;;;21.84;81.19;96413.95;601168;236;67268;-75
2022/06/21 06:13:31;;;;;;;;;;;;;;;21.84;80.93;96419.30;601193;236;66935;-74
2022/06/21 06:16:00;;;;;;;;;;;;;;;21.81;79.68;96425.23;600079;236;65798;-74
2022/06/21 06:18:32;;;;;;;;;;;;;;;21.83;79.71;96428.41;604214;233;67224;-75
2022/06/21 06:21:13;;;;;;;;;;;;;;;21.85;79.99;96420.09;606574;233;64961;-69
2022/06/21 06:23:48;;;;;;;;;;;;;;;21.88;79.98;96440.90;607280;233;62713;-70
2022/06/21 06:26:17;;;;;;;;;;;;;;;21.87;80.36;96434.77;604850;233;65116;-68
2022/06/21 06:28:49;;;;;;;;;;;;;;;21.87;80.03;96439.32;601184;236;64459;-67
2022/06/21 06:31:18;;;;;;;;;;;;;;;21.87;80.55;96431.30;601123;235;62819;-67
2022/06/21 06:33:47;;;;;;;;;;;;;;;21.87;80.43;96437.44;601158;233;67072;-67
2022/06/21 06:36:16;;;;;;;;;;;;;;;21.87;80.77;96437.44;600715;236;67442;-68
2022/06/21 06:38:44;;;;;;;;;;;;;;;21.88;80.67;96436.38;600819;233;65228;-67
2022/06/21 06:41:26;;;;;;;;;;;;;;;21.88;80.89;96428.34;606372;233;67075;-64
2022/06/21 06:43:58;;;;;;;;;;;;;;;21.88;81.01;96436.38;605482;233;64972;-67
2022/06/21 06:46:30;;;;;;;;;;;;;;;21.89;81.21;96429.92;607861;233;65020;-67
2022/06/21 06:48:59;;;;;;;;;;;;;;;21.90;81.32;96428.83;607879;233;64563;-66
2022/06/21 06:51:38;;;;;;;;;;;;;;;21.89;81.29;96429.92;606366;233;67065;-67
2022/06/21 06:54:06;;;;;;;;;;;;;;;21.90;81.94;96422.69;599643;233;63108;-67
2022/06/21 06:56:35;;;;;;;;;;;;;;;21.89;81.51;96411.20;598770;236;64724;-67
2022/06/21 06:59:11;;;;;;;;;;;;;;;21.89;81.38;96416.55;598642;236;64981;-68
2022/06/21 07:01:52;;;;;;;;;;;;;;;21.91;79.48;96418.95;599044;237;62892;-67
2022/06/21 07:04:20;;;;;;;;;;;;;;;21.95;80.64;96419.94;590415;236;67374;-68
2022/06/21 07:06:49;;;;;;;;;;;;;;;21.97;80.48;96428.48;603216;233;67142;-68
2022/06/21 07:09:21;;;;;;;;;;;;;;;21.97;80.39;96422.34;607400;233;64882;-68
2022/06/21 07:11:50;;;;;;;;;;;;;;;21.97;80.05;96420.45;607296;233;67218;-68
2022/06/21 07:14:22;;;;;;;;;;;;;;;21.98;79.78;96416.67;607288;233;64440;-69
2022/06/21 07:16:51;;;;;;;;;;;;;;;21.99;79.57;96420.96;607382;233;63627;-69
2022/06/21 07:19:19;;;;;;;;;;;;;;;22.00;79.42;96417.19;610259;231;67114;-70
2022/06/21 07:21:46;;;;;;;;;;;;;;;22.01;79.28;96415.30;611271;232;66731;-68
2022/06/21 07:24:16;;;;;;;;;;;;;;;22.01;79.17;96416.09;611305;232;62834;-68
2022/06/21 07:26:54;;;;;;;;;;;;;;;22.02;79.09;96406.20;611219;232;62366;-69
2022/06/21 07:29:23;;;;;;;;;;;;;;;22.03;78.98;96416.59;611023;232;64986;-68
2022/06/21 07:31:53;;;;;;;;;;;;;;;22.03;78.83;96413.14;611270;232;64890;-67
2022/06/21 07:34:42;;;;;;;;;;;;;;;22.05;78.71;96419.00;611160;232;67084;-68
2022/06/21 07:37:11;;;;;;;;;;;;;;;22.04;78.63;96412.83;611189;232;64850;-68
2022/06/21 07:39:40;;;;;;;;;;;;;;;22.07;78.13;96403.42;610933;232;62881;-68
2022/06/21 07:42:09;;;;;;;;;;;;;;;22.06;75.66;96404.52;611214;232;67221;-69
2022/06/21 07:44:50;;;;;;;;;;;;;;;22.04;76.56;96412.04;611144;232;66847;-69
2022/06/21 07:47:21;;;;;;;;;;;;;;;22.02;78.08;96409.67;611243;232;65007;-69
2022/06/21 07:49:50;;;;;;;;;;;;;;;22.01;78.38;96402.71;611119;232;67606;-69
2022/06/21 07:52:22;;;;;;;;;;;;;;;22.00;78.63;96408.38;611177;232;65411;-69
2022/06/21 07:54:53;;;;;;;;;;;;;;;21.98;78.88;96408.65;611216;232;65269;-67
2022/06/21 07:57:22;;;;;;;;;;;;;;;21.99;79.13;96417.47;611246;232;72554;-70
2022/06/21 07:59:54;;;;;;;;;;;;;;;21.98;79.27;96418.56;611264;232;66994;-68
2022/06/21 08:07:59;;;;;;;;;;;;;;;21.97;79.50;96425.01;600878;232;67221;-67
2022/06/21 08:10:34;;;;;;;;;;;;;;;21.97;79.69;96433.03;611266;232;63938;-67
2022/06/21 08:13:02;;;;;;;;;;;;;;;21.96;79.79;96424.19;611255;232;71585;-67
2022/06/21 08:15:31;;;;;;;;;;;;;;;21.97;79.69;96425.01;611307;232;64637;-68
2022/06/21 08:18:00;;;;;;;;;;;;;;;21.96;79.73;96418.84;611023;232;62792;-67
2022/06/21 08:20:32;;;;;;;;;;;;;;;21.97;79.66;96422.34;611386;232;65094;-68
2022/06/21 08:23:04;;;;;;;;;;;;;;;21.97;79.61;96435.72;611323;232;64632;-68
2022/06/21 08:25:36;;;;;;;;;;;;;;;21.96;79.55;96421.52;611193;232;64877;-64
2022/06/21 08:28:07;;;;;;;;;;;;;;;21.97;78.58;96419.66;611339;232;67973;-68
2022/06/21 08:30:39;;;;;;;;;;;;;;;22.00;80.43;96429.77;611241;232;64939;-68
2022/06/21 08:33:11;;;;;;;;;;;;;;;22.00;80.90;96427.89;610910;232;62777;-68
2022/06/21 08:35:40;;;;;;;;;;;;;;;22.00;80.21;96432.45;610183;231;67123;-68
2022/06/21 08:38:15;;;;;;;;;;;;;;;22.00;80.19;96432.45;605671;232;67538;-68
2022/06/21 08:40:44;;;;;;;;;;;;;;;22.00;80.18;96443.16;606042;231;64858;-66
2022/06/21 08:43:14;;;;;;;;;;;;;;;22.00;80.21;96433.24;604159;235;65118;-68
2022/06/21 08:45:43;;;;;;;;;;;;;;;21.99;80.22;96436.19;604091;235;64797;-68
2022/06/21 08:48:30;;;;;;;;;;;;;;;22.00;80.28;96432.45;595676;235;64900;-68
2022/06/21 08:51:15;;;;;;;;;;;;;;;22.00;80.27;96437.80;604184;235;67092;-68
2022/06/21 08:54:01;;;;;;;;;;;;;;;21.99;80.31;96439.69;608740;231;67029;-69
2022/06/21 08:56:33;;;;;;;;;;;;;;;22.01;76.98;96439.38;612470;231;63204;-68
2022/06/21 08:59:05;;;;;;;;;;;;;;;22.03;78.70;96445.24;612267;231;65048;-68
2022/06/21 09:01:41;;;;;;;;;;;;;;;22.03;78.58;96447.92;612377;231;66406;-67
2022/06/21 09:04:10;;;;;;;;;;;;;;;22.02;79.32;96433.75;612448;231;65173;-67
2022/06/21 09:06:40;;;;;;;;;;;;;;;22.01;79.58;96426.00;612350;231;66777;-72
2022/06/21 09:09:09;;;;;;;;;;;;;;;22.01;79.75;96426.00;612044;231;66868;-74
2022/06/21 09:11:44;;;;;;;;;;;;;;;22.01;79.83;96428.68;611942;231;62818;-74
2022/06/21 09:14:16;;;;;;;;;;;;;;;22.00;79.82;96430.56;612175;231;66848;-73
2022/06/21 09:16:51;;;;;;;;;;;;;;;22.00;79.85;96430.56;612434;231;64603;-73
2022/06/21 09:19:20;;;;;;;;;;;;;;;22.01;79.89;96428.68;609400;231;65856;-74
2022/06/21 09:22:02;;;;;;;;;;;;;;;22.01;79.80;96424.12;608424;233;64768;-78
2022/06/21 09:24:40;;;;;;;;;;;;;;;22.02;76.79;96424.94;608733;233;67228;-76
2022/06/21 09:27:09;;;;;;;;;;;;;;;22.04;78.03;96428.88;608746;233;65156;-78
2022/06/21 09:29:51;;;;;;;;;;;;;;;22.05;78.58;96435.05;608603;233;67775;-77
2022/06/21 09:32:36;;;;;;;;;;;;;;;22.04;78.96;96428.09;608589;233;66896;-71
2022/06/21 09:35:09;;;;;;;;;;;;;;;22.04;79.48;96423.53;608691;233;62993;-74
2022/06/21 09:37:47;;;;;;;;;;;;;;;22.02;79.61;96422.26;608724;233;67291;-74
2022/06/21 09:40:22;;;;;;;;;;;;;;;22.02;79.75;96431.08;608742;233;64787;-74
2022/06/21 09:43:05;;;;;;;;;;;;;;;22.02;79.75;96433.75;608488;233;48353;-74
2022/06/21 09:45:34;;;;;;;;;;;;;;;22.02;79.77;96428.40;608779;233;64918;-73
2022/06/21 09:48:05;;;;;;;;;;;;;;;22.02;79.80;96430.28;608730;231;64784;-73
2022/06/21 09:50:34;;;;;;;;;;;;;;;22.02;79.81;96430.28;608091;233;62822;-73
2022/06/21 09:53:03;;;;;;;;;;;;;;;22.02;79.81;96424.94;608378;231;64872;-73
2022/06/21 09:55:41;;;;;;;;;;;;;;;22.02;79.86;96422.26;608808;231;66912;-73
2022/06/21 09:58:19;;;;;;;;;;;;;;;22.03;79.95;96421.16;608704;233;64940;-73
2022/06/21 10:00:48;;;;;;;;;;;;;;;22.03;79.92;96421.16;608709;233;67305;-73
2022/06/21 10:03:17;;;;;;;;;;;;;;;22.02;80.01;96428.40;608611;233;67064;-73
2022/06/21 10:06:05;;;;;;;;;;;;;;;22.03;80.04;96413.14;608433;233;65985;-73
2022/06/21 10:08:34;;;;;;;;;;;;;;;22.03;80.04;96413.92;608686;233;67061;-73
2022/06/21 10:11:15;;;;;;;;;;;;;;;22.03;80.03;96410.45;608604;233;66851;-73
2022/06/21 10:13:47;;;;;;;;;;;;;;;22.03;80.12;96408.57;608609;231;62956;-72
2022/06/21 10:16:19;;;;;;;;;;;;;;;22.04;80.16;96401.34;608669;233;64837;-73
2022/06/21 10:19:05;;;;;;;;;;;;;;;22.04;80.04;96398.66;608558;231;64651;-72
2022/06/21 10:21:37;;;;;;;;;;;;;;;22.04;80.10;96414.71;608757;233;65127;-73
2022/06/21 10:24:09;;;;;;;;;;;;;;;22.04;80.18;96412.83;608692;233;64847;-72
2022/06/21 10:26:45;;;;;;;;;;;;;;;22.04;80.14;96402.13;607588;233;64773;-72
2022/06/21 10:29:29;;;;;;;;;;;;;;;22.05;80.19;96403.73;608739;233;65252;-72
2022/06/21 10:32:14;;;;;;;;;;;;;;;22.04;80.16;96406.69;608651;233;65266;-72
2022/06/21 10:34:43;;;;;;;;;;;;;;;22.03;80.16;96405.90;608612;231;64922;-73
2022/06/21 10:37:15;;;;;;;;;;;;;;;22.05;80.11;96405.63;608770;233;62984;-72
2022/06/21 10:39:46;;;;;;;;;;;;;;;22.05;80.06;96397.59;608604;231;67141;-72
2022/06/21 10:42:47;;;;;;;;;;;;;;;22.05;80.09;96397.59;608850;231;67169;-73
2022/06/21 10:45:25;;;;;;;;;;;;;;;22.04;80.02;96391.42;608648;233;63002;-74
2022/06/21 10:48:03;;;;;;;;;;;;;;;22.05;80.05;96397.59;608631;233;66761;-75
2022/06/21 10:50:35;;;;;;;;;;;;;;;22.05;79.99;96403.73;608633;233;66885;-73
2022/06/21 10:53:10;;;;;;;;;;;;;;;22.06;80.03;96399.17;608684;233;65163;-73
2022/06/21 10:55:40;;;;;;;;;;;;;;;22.06;80.04;96404.52;608581;233;65074;-75
2022/06/21 10:58:27;;;;;;;;;;;;;;;22.05;79.96;96406.41;608765;233;66976;-71
2022/06/21 11:01:17;;;;;;;;;;;;;;;22.06;80.00;96407.20;608696;233;62941;-72
2022/06/21 11:03:46;;;;;;;;;;;;;;;22.06;79.96;96404.52;608725;232;67063;-74
2022/06/21 11:06:21;;;;;;;;;;;;;;;22.06;80.00;96409.88;608630;233;67090;-73
2022/06/21 11:09:08;;;;;;;;;;;;;;;22.07;79.97;96396.22;608628;233;66052;-73
2022/06/21 11:11:38;;;;;;;;;;;;;;;22.10;78.01;96400.98;608699;231;64820;-73
2022/06/21 11:14:13;;;;;;;;;;;;;;;22.11;79.12;96399.09;608649;231;66940;-74
2022/06/21 11:16:58;;;;;;;;;;;;;;;22.09;79.14;96393.23;608709;233;65184;-72
2022/06/21 11:19:28;;;;;;;;;;;;;;;22.09;79.75;96399.38;608746;233;67058;-71
2022/06/21 11:21:57;;;;;;;;;;;;;;;22.09;79.68;96390.55;608611;233;66961;-75
2022/06/21 11:24:39;;;;;;;;;;;;;;;22.09;79.75;96390.55;608647;233;65084;-76
2022/06/21 11:27:17;;;;;;;;;;;;;;;22.10;79.53;96378.78;608556;231;65083;-77
2022/06/21 11:30:03;;;;;;;;;;;;;;;22.10;79.41;96387.59;608292;232;49056;-77
2022/06/21 11:32:53;;;;;;;;;;;;;;;22.11;76.66;96397.20;608740;233;45053;-75
2022/06/21 11:35:37;;;;;;;;;;;;;;;22.17;76.13;96393.34;608728;233;64865;-72
2022/06/21 11:38:23;;;;;;;;;;;;;;;22.20;78.09;96388.53;608750;233;66679;-73
2022/06/21 11:40:58;;;;;;;;;;;;;;;22.17;78.16;96397.91;608723;233;62768;-75
2022/06/21 11:43:27;;;;;;;;;;;;;;;22.16;77.36;96399.02;608529;233;64990;-74
2022/06/21 11:45:56;;;;;;;;;;;;;;;22.15;78.40;96402.75;608637;233;65346;-75
2022/06/21 11:48:35;;;;;;;;;;;;;;;22.14;79.04;96396.61;608585;231;63040;-74
2022/06/21 11:51:14;;;;;;;;;;;;;;;22.14;78.88;96387.80;608682;233;67082;-73
2022/06/21 11:53:46;;;;;;;;;;;;;;;22.13;78.73;96381.66;608752;233;64828;-75
2022/06/21 11:56:25;;;;;;;;;;;;;;;22.12;78.77;96381.94;608509;233;65126;-72
2022/06/21 11:59:03;;;;;;;;;;;;;;;22.13;78.88;96389.69;608680;233;67236;-73
2022/06/21 12:01:34;;;;;;;;;;;;;;;22.12;78.98;96382.73;606967;233;66942;-74
2022/06/21 12:04:18;;;;;;;;;;;;;;;22.13;79.05;96391.57;608531;233;63888;-74
2022/06/21 12:06:50;;;;;;;;;;;;;;;22.13;79.15;96383.55;608734;231;66780;-75
2022/06/21 12:09:19;;;;;;;;;;;;;;;22.13;79.17;96381.66;608703;233;64840;-74
2022/06/21 12:11:49;;;;;;;;;;;;;;;22.13;79.18;96375.52;608649;233;64839;-73
2022/06/21 12:14:20;;;;;;;;;;;;;;;22.14;79.25;96385.12;608738;233;65079;-72
2022/06/21 12:16:55;;;;;;;;;;;;;;;22.13;79.32;96384.33;608611;231;66908;-74
2022/06/21 12:19:24;;;;;;;;;;;;;;;22.14;79.33;96374.41;608670;231;62785;-72
2022/06/21 12:21:53;;;;;;;;;;;;;;;22.14;79.28;96369.85;607394;233;67115;-72
2022/06/21 12:24:22;;;;;;;;;;;;;;;22.14;79.38;96375.20;602938;235;64748;-73
2022/06/21 12:26:51;;;;;;;;;;;;;;;22.15;79.50;96373.32;601616;235;63644;-73
2022/06/21 12:29:20;;;;;;;;;;;;;;;22.15;79.40;96376.81;601029;236;67631;-73
2022/06/21 12:31:51;;;;;;;;;;;;;;;22.15;79.50;96373.32;601054;236;66938;-73
2022/06/21 12:34:36;;;;;;;;;;;;;;;22.15;79.45;96382.16;601041;236;64896;-74
2022/06/21 12:37:05;;;;;;;;;;;;;;;22.15;79.49;96374.14;601071;234;64896;-74
2022/06/21 12:39:34;;;;;;;;;;;;;;;22.15;79.40;96376.81;601107;236;66715;-74
2022/06/21 12:42:10;;;;;;;;;;;;;;;22.15;79.34;96360.76;601032;236;65100;-74
2022/06/21 12:44:39;;;;;;;;;;;;;;;22.15;79.48;96379.48;599884;236;67075;-74
2022/06/21 12:47:26;;;;;;;;;;;;;;;22.16;79.37;96377.60;600987;236;66948;-72
2022/06/21 12:50:11;;;;;;;;;;;;;;;22.16;79.49;96385.63;600915;236;64946;-72
2022/06/21 12:52:43;;;;;;;;;;;;;;;22.15;79.44;96390.20;601012;236;67091;-72
2022/06/21 12:55:28;;;;;;;;;;;;;;;22.16;79.32;96402.48;601082;236;66651;-73
2022/06/21 12:57:57;;;;;;;;;;;;;;;22.17;79.37;96377.29;601072;233;65114;-73
2022/06/21 13:00:26;;;;;;;;;;;;;;;22.16;79.42;96393.66;601092;236;65818;-75
2022/06/21 13:03:11;;;;;;;;;;;;;;;22.18;79.43;96396.87;600903;236;67221;-71
2022/06/21 13:05:47;;;;;;;;;;;;;;;22.16;79.43;96389.09;601445;235;65108;-70
2022/06/21 13:08:25;;;;;;;;;;;;;;;22.18;79.46;96372.78;605608;232;64982;-70
2022/06/21 13:10:54;;;;;;;;;;;;;;;22.17;79.52;96352.42;602098;232;64778;-70
2022/06/21 13:13:23;;;;;;;;;;;;;;;22.18;79.60;96356.73;601363;236;63629;-70
2022/06/21 13:15:56;;;;;;;;;;;;;;;22.18;79.56;96372.78;601383;236;64548;-69
2022/06/21 13:18:34;;;;;;;;;;;;;;;22.20;79.57;96385.86;605207;231;66679;-73
2022/06/21 13:21:21;;;;;;;;;;;;;;;22.20;79.36;96385.86;610342;232;64993;-74
2022/06/21 13:23:53;;;;;;;;;;;;;;;22.20;79.47;96377.83;610967;232;66666;-74